Time;durP1;ratioP1;P1;durP2;ratioP2;P2;SDS_P1;SDS_P2;PMS_P1;PMS_P2;Temp;Humidity;BMP_temperature;BMP_pressure;BME280_temperature;BME280_humidity;BME280_pressure;Samples;Min_cycle;Max_cycle;Signal;HPM_P1;HPM_P2
2024/04/07 00:00:45;;;;;;;;;;;;;;;16.16;52.32;100969.16;5038541;28;1123;-55
2024/04/07 00:03:10;;;;;;;;;;;;;;;15.97;52.34;100965.06;5039106;28;1179;-53
2024/04/07 00:05:37;;;;;;;;;;;;;;;16.10;53.20;100977.56;5038842;28;1173;-52
2024/04/07 00:08:02;;;;;;;;;;;;;;;17.54;50.85;100981.75;5038829;28;1180;-50
2024/04/07 00:10:28;;;;;;;;;;;;;;;16.96;51.41;100977.88;5038882;28;1103;-54
2024/04/07 00:12:53;;;;;;;;;;;;;;;16.52;52.36;100972.06;5038867;28;1127;-52
2024/04/07 00:15:19;;;;;;;;;;;;;;;16.32;52.56;100957.50;5038446;28;1079;-52
2024/04/07 00:17:47;;;;;;;;;;;;;;;16.14;52.64;100963.13;5038675;28;1075;-53
2024/04/07 00:20:13;;;;;;;;;;;;;;;16.04;52.43;100944.31;5039456;28;1179;-52
2024/04/07 00:22:39;;;;;;;;;;;;;;;16.20;53.19;100949.41;5038460;28;1021;-53
2024/04/07 00:25:04;;;;;;;;;;;;;;;17.54;50.89;100946.34;5038511;28;1012;-53
2024/04/07 00:27:30;;;;;;;;;;;;;;;16.88;51.83;100941.19;5038801;28;1231;-53
2024/04/07 00:29:56;;;;;;;;;;;;;;;16.47;52.45;100935.19;5038798;28;1135;-52
2024/04/07 00:32:21;;;;;;;;;;;;;;;16.24;52.91;100928.81;5038526;28;1146;-55
2024/04/07 00:34:47;;;;;;;;;;;;;;;16.12;52.83;100911.94;5038613;28;1163;-53
2024/04/07 00:37:13;;;;;;;;;;;;;;;16.02;52.85;100899.31;5037714;28;1160;-53
2024/04/07 00:39:38;;;;;;;;;;;;;;;15.93;52.85;100902.56;5038307;28;1975;-53
2024/04/07 00:42:04;;;;;;;;;;;;;;;17.05;52.00;100901.94;5038017;28;1055;-55
2024/04/07 00:44:29;;;;;;;;;;;;;;;17.57;50.30;100887.56;5039196;28;1152;-52
2024/04/07 00:46:55;;;;;;;;;;;;;;;16.78;52.22;100881.72;5037764;28;1171;-50
2024/04/07 00:49:20;;;;;;;;;;;;;;;16.42;52.64;100873.59;5038222;28;1563;-52
2024/04/07 00:51:46;;;;;;;;;;;;;;;16.24;52.87;100876.59;5038142;28;1234;-51
2024/04/07 00:54:11;;;;;;;;;;;;;;;16.12;52.90;100875.63;5020371;28;1154;-54
2024/04/07 00:56:37;;;;;;;;;;;;;;;16.03;52.36;100879.75;5020329;28;1056;-52
2024/04/07 00:59:03;;;;;;;;;;;;;;;17.15;51.88;100877.38;5038104;28;1985;-55
2024/04/07 01:01:28;;;;;;;;;;;;;;;17.30;51.16;100886.03;5038020;28;1120;-50
2024/04/07 01:03:54;;;;;;;;;;;;;;;16.58;52.43;100881.31;5038073;28;1223;-53
2024/04/07 01:06:19;;;;;;;;;;;;;;;16.35;52.59;100881.13;5037875;28;1223;-53
2024/04/07 01:08:45;;;;;;;;;;;;;;;16.23;52.88;100872.22;5037435;28;1251;-54
2024/04/07 01:11:12;;;;;;;;;;;;;;;16.12;52.84;100870.31;5020661;28;1095;-53
2024/04/07 01:13:38;;;;;;;;;;;;;;;17.35;51.50;100875.91;5037180;28;1060;-52
2024/04/07 01:16:03;;;;;;;;;;;;;;;17.14;51.55;100876.53;5037879;28;1071;-52
2024/04/07 01:18:29;;;;;;;;;;;;;;;16.57;52.63;100868.16;5037338;28;1905;-53
2024/04/07 01:20:54;;;;;;;;;;;;;;;16.39;52.56;100865.84;5037519;28;1079;-51
2024/04/07 01:23:20;;;;;;;;;;;;;;;16.19;53.00;100869.91;5037354;28;1047;-53
2024/04/07 01:25:45;;;;;;;;;;;;;;;16.05;53.08;100863.75;5037084;28;1028;-56
2024/04/07 01:28:12;;;;;;;;;;;;;;;15.99;52.95;100858.84;5037390;28;1064;-54
2024/04/07 01:30:37;;;;;;;;;;;;;;;16.73;52.76;100865.28;5037533;28;1086;-54
2024/04/07 01:33:03;;;;;;;;;;;;;;;17.74;50.46;100862.38;5037227;28;1155;-54
2024/04/07 01:35:29;;;;;;;;;;;;;;;16.82;52.43;100867.25;5036903;28;1091;-56
2024/04/07 01:37:55;;;;;;;;;;;;;;;16.48;52.80;100867.84;5037301;28;1902;-51
2024/04/07 01:40:20;;;;;;;;;;;;;;;16.27;52.70;100859.59;5037122;28;1016;-52
2024/04/07 01:42:46;;;;;;;;;;;;;;;16.12;53.07;100856.19;5037321;28;1071;-53
2024/04/07 01:45:11;;;;;;;;;;;;;;;16.01;53.00;100864.91;5037119;28;1127;-52
2024/04/07 01:47:37;;;;;;;;;;;;;;;15.91;52.88;100860.19;5037735;28;1095;-53
2024/04/07 01:50:03;;;;;;;;;;;;;;;16.86;52.58;100868.75;5037077;28;1004;-50
2024/04/07 01:52:29;;;;;;;;;;;;;;;17.53;50.98;100870.16;5037327;28;1118;-52
2024/04/07 01:54:54;;;;;;;;;;;;;;;16.72;52.61;100867.06;5036531;28;1118;-54
2024/04/07 01:57:19;;;;;;;;;;;;;;;16.46;52.67;100867.13;5037084;28;1148;-53
2024/04/07 01:59:45;;;;;;;;;;;;;;;16.24;52.98;100867.78;5036692;28;1978;-54
2024/04/07 02:02:11;;;;;;;;;;;;;;;16.08;53.10;100873.31;5036535;28;878;-52
2024/04/07 02:04:36;;;;;;;;;;;;;;;16.02;53.19;100870.13;5036874;28;1111;-52
2024/04/07 02:07:02;;;;;;;;;;;;;;;17.32;52.05;100874.31;5037138;28;1215;-52
2024/04/07 02:09:28;;;;;;;;;;;;;;;17.28;51.32;100877.31;5036750;28;1032;-49
2024/04/07 02:11:54;;;;;;;;;;;;;;;16.63;52.83;100875.69;5036810;28;1152;-52
2024/04/07 02:14:19;;;;;;;;;;;;;;;16.36;52.95;100877.56;5018479;28;1320;-55
2024/04/07 02:16:45;;;;;;;;;;;;;;;16.23;52.90;100882.00;5037080;28;1096;-54
2024/04/07 02:19:11;;;;;;;;;;;;;;;16.12;52.92;100877.44;5036934;28;1981;-52
2024/04/07 02:21:36;;;;;;;;;;;;;;;15.99;53.25;100882.75;5035589;28;1053;-50
2024/04/07 02:24:02;;;;;;;;;;;;;;;17.37;51.71;100892.56;5036885;28;1024;-51
2024/04/07 02:26:27;;;;;;;;;;;;;;;17.19;51.66;100908.06;5036039;28;1147;-53
2024/04/07 02:28:53;;;;;;;;;;;;;;;16.58;52.88;100891.94;5036356;28;1102;-50
2024/04/07 02:31:18;;;;;;;;;;;;;;;16.36;53.13;100895.28;5036859;28;1035;-51
2024/04/07 02:33:47;;;;;;;;;;;;;;;16.15;53.06;100896.66;5036378;28;1209;-53
2024/04/07 02:36:12;;;;;;;;;;;;;;;16.12;52.57;100891.56;5035916;28;1237;-54
2024/04/07 02:38:38;;;;;;;;;;;;;;;15.97;52.75;100885.47;5036403;28;1914;-54
2024/04/07 02:41:04;;;;;;;;;;;;;;;17.02;52.74;100886.22;5035796;28;1142;-53
2024/04/07 02:43:29;;;;;;;;;;;;;;;17.37;51.21;100896.09;5036308;28;1480;-54
2024/04/07 02:48:38;;;;;;;;;;;;;;;16.26;52.95;100880.00;5036297;28;1120;-52
2024/04/07 02:51:04;;;;;;;;;;;;;;;16.21;53.10;100886.56;5035968;28;931;-51
2024/04/07 02:53:29;;;;;;;;;;;;;;;16.03;53.08;100882.41;5036297;28;1207;-55
2024/04/07 02:55:55;;;;;;;;;;;;;;;15.91;53.12;100876.09;5036100;28;1092;-52
2024/04/07 02:58:20;;;;;;;;;;;;;;;16.74;53.07;100881.09;5036020;28;1905;-53
2024/04/07 03:00:46;;;;;;;;;;;;;;;17.49;51.26;100889.03;5036299;28;1371;-55
2024/04/07 03:03:11;;;;;;;;;;;;;;;16.65;52.89;100881.72;5035726;28;1055;-52
2024/04/07 03:05:37;;;;;;;;;;;;;;;16.42;53.10;100878.91;5036487;28;1071;-50
2024/04/07 03:08:03;;;;;;;;;;;;;;;16.12;53.39;100882.75;5035854;28;1127;-49
2024/04/07 03:10:29;;;;;;;;;;;;;;;16.10;52.92;100888.16;5036219;28;1088;-53
2024/04/07 03:12:54;;;;;;;;;;;;;;;15.91;53.35;100872.63;5036123;28;1075;-52
2024/04/07 03:15:20;;;;;;;;;;;;;;;16.50;53.45;100876.56;5036059;28;960;-51
2024/04/07 03:17:45;;;;;;;;;;;;;;;17.70;51.08;100880.38;5035396;28;1155;-49
2024/04/07 03:20:11;;;;;;;;;;;;;;;16.88;52.29;100885.41;5035877;28;1902;-47
2024/04/07 03:22:36;;;;;;;;;;;;;;;16.49;53.14;100884.63;5035846;28;1063;-49
2024/04/07 03:25:02;;;;;;;;;;;;;;;16.32;52.83;100881.34;5035850;28;1100;-46
2024/04/07 03:27:27;;;;;;;;;;;;;;;16.14;52.96;100887.00;5035408;28;1230;-47
2024/04/07 03:29:53;;;;;;;;;;;;;;;16.40;53.66;100878.16;5036252;28;1162;-49
2024/04/07 03:32:18;;;;;;;;;;;;;;;17.73;51.16;100884.63;5036902;28;1095;-48
2024/04/07 03:34:44;;;;;;;;;;;;;;;17.02;52.11;100891.53;5040307;28;1119;-50
2024/04/07 03:37:10;;;;;;;;;;;;;;;16.62;52.82;100889.91;5039153;28;1142;-51
2024/04/07 03:39:35;;;;;;;;;;;;;;;16.39;53.00;100887.09;5039313;28;1989;-51
2024/04/07 03:42:01;;;;;;;;;;;;;;;16.18;52.94;100892.09;5039668;28;1064;-48
2024/04/07 03:44:27;;;;;;;;;;;;;;;16.09;52.62;100891.78;5039646;28;1009;-50
2024/04/07 03:46:53;;;;;;;;;;;;;;;16.83;52.98;100895.50;5039233;28;1134;-51
2024/04/07 03:49:19;;;;;;;;;;;;;;;17.50;51.24;100893.38;5039343;28;1207;-50
2024/04/07 03:51:46;;;;;;;;;;;;;;;16.86;52.46;100897.09;5039125;28;912;-48
2024/04/07 03:54:11;;;;;;;;;;;;;;;16.49;52.87;100893.47;5038623;28;1150;-49
2024/04/07 03:56:37;;;;;;;;;;;;;;;16.35;53.06;100902.38;5039608;28;1178;-49
2024/04/07 03:59:02;;;;;;;;;;;;;;;16.17;53.20;100899.19;5038875;28;1898;-51
2024/04/07 04:01:28;;;;;;;;;;;;;;;16.06;52.90;100902.59;5039448;28;1187;-49
2024/04/07 04:03:54;;;;;;;;;;;;;;;15.96;53.11;100920.94;5039043;28;877;-48
2024/04/07 04:06:20;;;;;;;;;;;;;;;16.91;53.08;100929.50;5039212;28;1071;-49
2024/04/07 04:08:45;;;;;;;;;;;;;;;17.10;52.64;100931.72;5038768;28;1176;-49
2024/04/07 04:11:12;;;;;;;;;;;;;;;15.83;53.09;100915.56;5038868;28;1145;-54
2024/04/07 04:13:37;;;;;;;;;;;;;;;15.61;52.13;100917.03;5038886;28;1059;-53
2024/04/07 04:16:03;;;;;;;;;;;;;;;15.45;50.85;100925.13;5038500;28;913;-52
2024/04/07 04:18:29;;;;;;;;;;;;;;;15.22;50.07;100924.81;5038975;28;1971;-54
2024/04/07 04:20:54;;;;;;;;;;;;;;;15.79;51.62;100932.66;5039141;28;1211;-53
2024/04/07 04:23:20;;;;;;;;;;;;;;;16.18;52.14;100946.03;5038605;28;1008;-52
2024/04/07 04:25:54;;;;;;;;;;;;;;;15.66;51.22;100948.53;5038408;28;1040;-49
2024/04/07 04:28:21;;;;;;;;;;;;;;;16.66;52.38;100952.50;5038051;28;911;-53
2024/04/07 04:30:56;;;;;;;;;;;;;;;15.93;51.67;100954.78;5038560;28;1168;-55
2024/04/07 04:33:22;;;;;;;;;;;;;;;15.58;50.66;100948.19;5039053;28;1055;-50
2024/04/07 04:35:47;;;;;;;;;;;;;;;15.87;51.41;100951.56;5038392;28;1143;-55
2024/04/07 04:38:13;;;;;;;;;;;;;;;16.56;51.71;100948.78;5038354;28;1967;-56
2024/04/07 04:40:38;;;;;;;;;;;;;;;15.89;51.12;100944.38;5038031;28;930;-50
2024/04/07 04:43:04;;;;;;;;;;;;;;;15.69;50.25;100947.47;5037773;28;1079;-55
2024/04/07 04:45:29;;;;;;;;;;;;;;;17.06;51.14;100943.50;5038003;28;1091;-53
2024/04/07 04:47:55;;;;;;;;;;;;;;;16.08;51.33;100937.00;5038120;28;1222;-52
2024/04/07 04:50:20;;;;;;;;;;;;;;;15.70;50.70;100939.41;5038212;28;1112;-54
2024/04/07 04:52:46;;;;;;;;;;;;;;;15.61;49.72;100940.03;5037765;28;971;-52
2024/04/07 04:55:11;;;;;;;;;;;;;;;16.82;50.58;100943.44;5038212;28;1075;-55
2024/04/07 04:57:37;;;;;;;;;;;;;;;16.03;50.73;100953.25;5038292;28;1095;-54
2024/04/07 05:00:03;;;;;;;;;;;;;;;15.88;49.43;100949.78;5037779;28;1958;-51
2024/04/07 05:02:29;;;;;;;;;;;;;;;16.03;50.71;100956.72;5038253;28;1147;-53
2024/04/07 05:04:54;;;;;;;;;;;;;;;16.22;50.60;100949.31;5037565;28;1004;-51
2024/04/07 05:07:20;;;;;;;;;;;;;;;15.73;49.97;100956.94;5037902;28;1060;-55
2024/04/07 05:09:46;;;;;;;;;;;;;;;15.71;48.97;100964.16;5038192;28;1163;-55
2024/04/07 05:12:12;;;;;;;;;;;;;;;16.57;50.17;100959.31;5037674;28;1527;-56
2024/04/07 05:14:38;;;;;;;;;;;;;;;16.15;50.28;100956.84;5038007;28;1067;-58
2024/04/07 05:17:03;;;;;;;;;;;;;;;15.85;49.87;100956.13;5037722;28;1135;-55
2024/04/07 05:19:29;;;;;;;;;;;;;;;15.61;48.90;100959.47;5037162;28;1910;-56
2024/04/07 05:21:54;;;;;;;;;;;;;;;16.73;50.20;100961.72;5037516;28;1139;-55
2024/04/07 05:24:21;;;;;;;;;;;;;;;16.03;50.23;100964.69;5037564;28;1139;-52
2024/04/07 05:26:47;;;;;;;;;;;;;;;15.81;49.17;100962.59;5037032;28;1074;-53
2024/04/07 05:29:13;;;;;;;;;;;;;;;15.57;49.09;100954.44;5037710;28;1222;-56
2024/04/07 05:31:39;;;;;;;;;;;;;;;15.50;48.36;100953.97;5037531;28;1160;-54
2024/04/07 05:34:05;;;;;;;;;;;;;;;17.05;49.35;100952.44;5037858;28;1138;-55
2024/04/07 05:36:31;;;;;;;;;;;;;;;16.15;49.86;100943.56;5037565;28;1191;-55
2024/04/07 05:38:56;;;;;;;;;;;;;;;15.79;49.42;100941.47;5037011;28;1968;-56
2024/04/07 05:41:21;;;;;;;;;;;;;;;16.92;49.48;100943.63;5037103;28;1087;-55
2024/04/07 05:43:47;;;;;;;;;;;;;;;16.05;50.15;100945.16;5037102;28;1079;-54
2024/04/07 05:46:13;;;;;;;;;;;;;;;15.81;49.48;100954.63;5037668;28;1146;-56
2024/04/07 05:48:38;;;;;;;;;;;;;;;15.77;48.43;100948.69;5036787;28;1063;-52
2024/04/07 05:51:10;;;;;;;;;;;;;;;16.01;48.97;100958.66;5037035;28;1051;-55
2024/04/07 05:53:35;;;;;;;;;;;;;;;16.33;49.85;100964.53;5037275;28;1056;-50
2024/04/07 05:56:01;;;;;;;;;;;;;;;15.87;49.20;100966.63;5036818;28;1099;-52
2024/04/07 05:58:27;;;;;;;;;;;;;;;15.79;48.60;100969.78;5036653;28;1902;-56
2024/04/07 06:00:52;;;;;;;;;;;;;;;15.95;48.74;100964.31;5037066;28;1063;-51
2024/04/07 06:03:18;;;;;;;;;;;;;;;16.50;49.50;100963.34;5036582;28;1067;-53
2024/04/07 06:05:43;;;;;;;;;;;;;;;15.89;49.40;100962.06;5037253;28;1142;-55
2024/04/07 06:08:09;;;;;;;;;;;;;;;15.75;48.72;100968.28;5036950;28;1099;-52
2024/04/07 06:10:35;;;;;;;;;;;;;;;15.67;48.21;100961.69;5037287;28;1223;-55
2024/04/07 06:13:00;;;;;;;;;;;;;;;16.71;48.93;100962.81;5036458;28;1159;-52
2024/04/07 06:15:26;;;;;;;;;;;;;;;15.91;49.69;100966.31;5036622;28;1048;-49
2024/04/07 06:17:51;;;;;;;;;;;;;;;15.76;48.85;100968.22;5036458;28;1039;-53
2024/04/07 06:20:17;;;;;;;;;;;;;;;15.69;47.82;100968.69;5036722;28;1910;-55
2024/04/07 06:22:43;;;;;;;;;;;;;;;15.62;47.36;100973.56;5036292;28;1092;-54
2024/04/07 06:25:09;;;;;;;;;;;;;;;15.52;47.55;100986.56;5036558;28;1099;-56
2024/04/07 06:27:34;;;;;;;;;;;;;;;16.60;48.42;100985.66;5036022;28;1170;-56
2024/04/07 06:30:00;;;;;;;;;;;;;;;15.87;48.68;100983.41;5036634;28;1071;-50
2024/04/07 06:32:26;;;;;;;;;;;;;;;15.72;48.25;100987.06;5036140;28;1148;-54
2024/04/07 06:34:51;;;;;;;;;;;;;;;15.52;48.12;100987.41;5036195;28;1099;-52
2024/04/07 06:37:17;;;;;;;;;;;;;;;16.75;48.80;100988.19;5036235;28;1227;-49
2024/04/07 06:39:42;;;;;;;;;;;;;;;16.34;49.39;101001.59;5035825;28;1964;-56
2024/04/07 06:42:08;;;;;;;;;;;;;;;15.89;49.05;100997.44;5036042;28;1087;-53
2024/04/07 06:44:33;;;;;;;;;;;;;;;16.95;49.49;101002.72;5035814;28;1401;-57
2024/04/07 06:47:01;;;;;;;;;;;;;;;16.22;49.87;101005.91;5036173;28;1219;-57
2024/04/07 06:49:26;;;;;;;;;;;;;;;15.98;48.82;100997.78;5036309;28;1609;-57
2024/04/07 06:51:52;;;;;;;;;;;;;;;15.87;48.48;101001.97;5036097;28;1242;-52
2024/04/07 06:54:17;;;;;;;;;;;;;;;17.06;48.57;101001.97;5035862;28;1104;-54
2024/04/07 06:56:42;;;;;;;;;;;;;;;16.20;49.46;101015.78;5036221;28;1122;-51
2024/04/07 06:59:08;;;;;;;;;;;;;;;15.94;48.49;101013.03;5036287;28;1910;-52
2024/04/07 07:01:33;;;;;;;;;;;;;;;15.81;48.07;101012.13;5035836;28;1019;-53
2024/04/07 07:03:59;;;;;;;;;;;;;;;15.71;47.65;101012.75;5018182;28;1040;-57
2024/04/07 07:06:24;;;;;;;;;;;;;;;16.97;48.97;101015.91;5036909;28;1250;-56
2024/04/07 07:08:50;;;;;;;;;;;;;;;16.22;49.08;101015.66;5042598;28;1116;-49
2024/04/07 07:11:16;;;;;;;;;;;;;;;15.87;49.01;101032.94;5042799;28;1083;-51
2024/04/07 07:13:44;;;;;;;;;;;;;;;15.84;48.07;101022.53;5042932;28;1132;-56
2024/04/07 07:16:09;;;;;;;;;;;;;;;15.70;47.80;101028.75;5056713;28;1163;-56
2024/04/07 07:18:35;;;;;;;;;;;;;;;16.89;48.54;101037.72;5042113;28;1910;-55
2024/04/07 07:21:01;;;;;;;;;;;;;;;16.57;49.16;101044.28;5042570;28;1119;-51
2024/04/07 07:23:26;;;;;;;;;;;;;;;16.15;48.78;101047.06;5042314;28;1043;-50
2024/04/07 07:25:53;;;;;;;;;;;;;;;15.92;48.15;101049.44;5042540;28;1079;-50
2024/04/07 07:28:19;;;;;;;;;;;;;;;15.85;47.62;101058.75;5042423;28;1212;-58
2024/04/07 07:30:45;;;;;;;;;;;;;;;15.68;47.51;101052.75;5024914;28;1158;-57
2024/04/07 07:33:10;;;;;;;;;;;;;;;15.73;47.29;101057.75;5042825;28;1226;-56
2024/04/07 07:35:39;;;;;;;;;;;;;;;16.85;48.49;101062.81;5041962;28;1463;-49
2024/04/07 07:38:04;;;;;;;;;;;;;;;16.03;48.97;101068.16;5042232;28;1971;-51
2024/04/07 07:40:30;;;;;;;;;;;;;;;15.87;48.59;101067.44;5042058;28;1025;-52
2024/04/07 07:42:55;;;;;;;;;;;;;;;16.65;49.11;101065.88;5042667;28;1178;-51
2024/04/07 07:45:21;;;;;;;;;;;;;;;16.45;49.18;101063.75;5041983;28;1074;-51
2024/04/07 07:47:47;;;;;;;;;;;;;;;16.06;49.04;101058.31;5042139;28;1059;-52
2024/04/07 07:50:12;;;;;;;;;;;;;;;15.89;48.20;101066.41;5042298;28;1250;-55
2024/04/07 07:52:38;;;;;;;;;;;;;;;15.88;47.76;101066.50;5042149;28;1255;-56
2024/04/07 07:55:03;;;;;;;;;;;;;;;15.72;47.45;101058.66;5042046;28;1071;-48
2024/04/07 07:57:29;;;;;;;;;;;;;;;15.69;46.94;101072.13;5042146;28;1142;-54
2024/04/07 07:59:55;;;;;;;;;;;;;;;16.45;48.38;101066.38;5042151;28;1902;-55
2024/04/07 08:02:20;;;;;;;;;;;;;;;16.29;48.46;101056.78;5042050;28;1056;-55
2024/04/07 08:04:45;;;;;;;;;;;;;;;15.89;48.24;101065.53;5041998;28;1507;-54
2024/04/07 08:07:11;;;;;;;;;;;;;;;15.77;47.61;101069.84;5041695;28;1234;-50
2024/04/07 08:09:36;;;;;;;;;;;;;;;15.73;47.35;101071.00;5041972;28;1111;-58
2024/04/07 08:12:02;;;;;;;;;;;;;;;15.71;46.62;101063.16;5042187;28;1083;-53
2024/04/07 08:14:27;;;;;;;;;;;;;;;16.76;48.12;101067.81;5041602;28;1071;-54
2024/04/07 08:16:53;;;;;;;;;;;;;;;15.95;48.87;101061.66;5041535;28;1156;-56
2024/04/07 08:19:18;;;;;;;;;;;;;;;15.97;48.90;101065.91;5039274;28;1879;-56
2024/04/07 08:21:44;;;;;;;;;;;;;;;16.87;48.67;101064.41;5039073;28;1250;-50
2024/04/07 08:24:10;;;;;;;;;;;;;;;16.09;49.59;101068.72;5038508;28;1063;-49
2024/04/07 08:26:36;;;;;;;;;;;;;;;16.73;49.85;101069.81;5038575;28;1131;-53
2024/04/07 08:29:01;;;;;;;;;;;;;;;16.37;49.69;101078.38;5038426;28;1086;-53
2024/04/07 08:31:27;;;;;;;;;;;;;;;16.05;49.22;101083.16;5038986;28;1113;-52
2024/04/07 08:33:52;;;;;;;;;;;;;;;15.93;48.29;101090.09;5038826;28;1123;-52
2024/04/07 08:36:18;;;;;;;;;;;;;;;16.75;48.96;101097.97;5038658;28;1223;-54
2024/04/07 08:38:44;;;;;;;;;;;;;;;16.38;48.94;101090.69;5038166;28;1897;-52
2024/04/07 08:41:09;;;;;;;;;;;;;;;16.05;48.57;101091.13;5038216;28;893;-57
2024/04/07 08:43:35;;;;;;;;;;;;;;;15.95;47.84;101091.66;5038647;28;1091;-56
2024/04/07 08:46:02;;;;;;;;;;;;;;;15.78;47.44;101090.13;5020744;28;1204;-54
2024/04/07 08:48:27;;;;;;;;;;;;;;;15.72;46.83;101083.41;5020634;28;1057;-57
2024/04/07 08:50:53;;;;;;;;;;;;;;;16.76;48.62;101090.84;5021161;28;1152;-52
2024/04/07 08:53:18;;;;;;;;;;;;;;;16.33;48.55;101087.47;5020610;28;1161;-58
2024/04/07 08:55:44;;;;;;;;;;;;;;;15.90;48.64;101086.66;5037952;28;1107;-55
2024/04/07 08:58:10;;;;;;;;;;;;;;;15.85;47.89;101087.94;5053626;28;1960;-53
2024/04/07 09:00:36;;;;;;;;;;;;;;;15.69;47.44;101080.94;5053714;28;1056;-55
2024/04/07 09:03:01;;;;;;;;;;;;;;;16.05;47.76;101081.34;5038536;28;1104;-56
2024/04/07 09:05:27;;;;;;;;;;;;;;;16.91;48.45;101096.06;5020133;28;920;-55
2024/04/07 09:07:52;;;;;;;;;;;;;;;16.20;48.78;101097.22;5019906;28;1051;-54
2024/04/07 09:10:18;;;;;;;;;;;;;;;15.97;47.91;101083.59;5037961;28;1179;-50
2024/04/07 09:12:43;;;;;;;;;;;;;;;15.79;47.64;101091.81;5037960;28;1043;-53
2024/04/07 09:15:09;;;;;;;;;;;;;;;15.75;47.20;101101.78;5038280;28;1048;-54
2024/04/07 09:17:34;;;;;;;;;;;;;;;15.63;47.15;101098.09;5037337;28;1047;-56
2024/04/07 09:20:00;;;;;;;;;;;;;;;15.66;46.63;101097.88;5037527;28;2055;-54
2024/04/07 09:22:25;;;;;;;;;;;;;;;17.02;47.56;101107.66;5038015;28;1095;-51
2024/04/07 09:25:02;;;;;;;;;;;;;;;16.03;48.74;101104.50;5037773;28;1063;-56
2024/04/07 09:27:27;;;;;;;;;;;;;;;15.82;47.99;101096.94;5037310;28;1107;-55
2024/04/07 09:29:53;;;;;;;;;;;;;;;17.17;48.14;101098.75;5036571;28;873;-57
2024/04/07 09:32:18;;;;;;;;;;;;;;;16.17;49.10;101098.25;5037693;28;1064;-57
2024/04/07 09:34:47;;;;;;;;;;;;;;;15.95;48.24;101093.50;5037624;28;1283;-54
2024/04/07 09:37:13;;;;;;;;;;;;;;;15.84;47.92;101097.69;5037406;28;1159;-56
2024/04/07 09:39:38;;;;;;;;;;;;;;;15.83;46.97;101095.97;5037180;28;1969;-54
2024/04/07 09:42:04;;;;;;;;;;;;;;;17.16;48.42;101086.41;5037180;28;1447;-58
2024/04/07 09:44:33;;;;;;;;;;;;;;;16.20;49.36;101086.63;5053101;28;1138;-53
2024/04/07 09:47:01;;;;;;;;;;;;;;;16.02;48.36;101098.31;5037182;28;1083;-54
2024/04/07 09:49:27;;;;;;;;;;;;;;;15.97;47.80;101100.38;5019551;28;1186;-56
2024/04/07 09:51:53;;;;;;;;;;;;;;;15.67;47.61;101091.66;5019698;28;1227;-53
2024/04/07 09:54:19;;;;;;;;;;;;;;;15.69;46.99;101098.66;5036803;28;1009;-53
2024/04/07 09:56:45;;;;;;;;;;;;;;;17.17;47.80;101102.25;5036719;28;1165;-52
2024/04/07 09:59:10;;;;;;;;;;;;;;;16.18;49.23;101101.78;5037092;28;1906;-53
2024/04/07 10:01:36;;;;;;;;;;;;;;;16.03;48.09;101117.75;5019094;28;1187;-55
2024/04/07 10:04:02;;;;;;;;;;;;;;;15.84;47.72;101115.41;5037463;28;1135;-55
2024/04/07 10:06:29;;;;;;;;;;;;;;;15.85;46.91;101122.41;5036357;28;1090;-52
2024/04/07 10:08:55;;;;;;;;;;;;;;;15.98;46.66;101138.41;5019145;28;1301;-47
2024/04/07 10:11:20;;;;;;;;;;;;;;;15.85;47.40;101157.75;5019017;28;1103;-50
2024/04/07 10:13:46;;;;;;;;;;;;;;;16.77;48.51;101169.59;5037072;28;1056;-53
2024/04/07 10:16:15;;;;;;;;;;;;;;;16.04;48.84;101183.16;5036827;28;984;-51
2024/04/07 10:18:41;;;;;;;;;;;;;;;15.88;47.53;101184.06;5036243;28;1968;-51
2024/04/07 10:21:08;;;;;;;;;;;;;;;15.73;47.37;101191.19;5036259;28;1168;-52
2024/04/07 10:23:40;;;;;;;;;;;;;;;15.68;46.77;101188.00;5036882;28;1055;-50
2024/04/07 10:26:06;;;;;;;;;;;;;;;16.27;47.76;101180.81;5036358;28;1134;-51
2024/04/07 10:28:47;;;;;;;;;;;;;;;16.20;48.04;101172.38;5036690;28;1164;-53
2024/04/07 10:31:15;;;;;;;;;;;;;;;15.90;47.78;101184.84;5036051;28;1096;-51
2024/04/07 10:33:41;;;;;;;;;;;;;;;15.77;46.88;101186.56;5036608;28;1059;-51
2024/04/07 10:36:08;;;;;;;;;;;;;;;15.73;46.18;101201.81;5036117;28;1108;-50
2024/04/07 10:38:47;;;;;;;;;;;;;;;15.86;47.18;101193.09;5019054;28;1913;-53
2024/04/07 10:41:39;;;;;;;;;;;;;;;16.46;47.76;101180.47;5024011;28;1128;-53
2024/04/07 10:44:04;;;;;;;;;;;;;;;15.77;47.81;101183.91;5033795;28;1618;-54
2024/04/07 10:46:30;;;;;;;;;;;;;;;15.68;46.89;101182.69;5018938;28;1072;-51
2024/04/07 10:48:56;;;;;;;;;;;;;;;17.18;47.75;101193.50;5036263;28;1118;-53
2024/04/07 10:51:22;;;;;;;;;;;;;;;16.21;48.44;101174.09;5036202;28;1115;-53
2024/04/07 10:54:07;;;;;;;;;;;;;;;15.90;47.88;101179.53;5036008;28;1118;-50
2024/04/07 10:56:33;;;;;;;;;;;;;;;15.69;47.03;101183.53;5036219;28;1127;-49
2024/04/07 10:58:59;;;;;;;;;;;;;;;17.04;48.17;101184.63;5018499;28;1968;-54
2024/04/07 11:01:24;;;;;;;;;;;;;;;16.27;48.86;101186.13;5035355;28;1049;-53
2024/04/07 11:03:53;;;;;;;;;;;;;;;16.01;47.82;101184.22;5036074;28;1080;-51
2024/04/07 11:06:23;;;;;;;;;;;;;;;15.91;47.45;101186.53;5035975;28;1215;-52
2024/04/07 11:08:49;;;;;;;;;;;;;;;16.46;48.27;101193.75;5036185;28;1219;-50
2024/04/07 11:11:14;;;;;;;;;;;;;;;16.75;48.58;101200.72;5035866;28;1099;-53
2024/04/07 11:13:40;;;;;;;;;;;;;;;16.17;48.10;101185.84;5035889;28;1041;-50
2024/04/07 11:16:07;;;;;;;;;;;;;;;16.02;47.44;101191.19;5036250;28;1179;-51
2024/04/07 11:18:33;;;;;;;;;;;;;;;15.81;46.55;101189.88;5035852;28;1970;-52
2024/04/07 11:20:59;;;;;;;;;;;;;;;16.35;47.45;101197.09;5036226;28;1171;-53
2024/04/07 11:23:25;;;;;;;;;;;;;;;16.25;47.88;101196.84;5035923;28;1156;-52
2024/04/07 11:25:52;;;;;;;;;;;;;;;16.01;47.47;101193.97;5035805;28;1032;-54
2024/04/07 11:28:18;;;;;;;;;;;;;;;15.99;46.75;101199.38;5035655;28;1033;-51
2024/04/07 11:30:50;;;;;;;;;;;;;;;16.46;47.92;101187.56;5033067;28;1214;-57
2024/04/07 11:33:16;;;;;;;;;;;;;;;15.96;47.77;101196.88;5023850;28;1337;-56
2024/04/07 11:35:44;;;;;;;;;;;;;;;15.85;47.02;101200.19;5019031;28;1137;-55
2024/04/07 11:38:11;;;;;;;;;;;;;;;16.44;47.68;101206.28;5035141;28;1342;-57
2024/04/07 11:40:37;;;;;;;;;;;;;;;16.46;48.05;101204.38;5023163;28;1226;-53
2024/04/07 11:43:03;;;;;;;;;;;;;;;16.07;47.48;101205.97;5027101;28;1282;-52
2024/04/07 11:45:28;;;;;;;;;;;;;;;15.85;46.87;101205.50;5031233;28;1143;-54
2024/04/07 11:47:54;;;;;;;;;;;;;;;15.70;46.44;101195.84;5025945;28;1353;-50
2024/04/07 11:50:19;;;;;;;;;;;;;;;15.65;45.92;101214.69;5017676;28;1100;-52
2024/04/07 11:52:45;;;;;;;;;;;;;;;15.62;45.46;101209.56;5027842;28;1306;-50
2024/04/07 11:55:11;;;;;;;;;;;;;;;16.26;46.74;101209.19;5039044;28;1241;-53
2024/04/07 11:57:36;;;;;;;;;;;;;;;17.25;47.37;101218.69;5039245;28;1075;-50
2024/04/07 12:00:04;;;;;;;;;;;;;;;16.20;48.39;101222.00;5021621;28;1997;-55
2024/04/07 12:02:37;;;;;;;;;;;;;;;15.99;47.80;101225.91;5039296;28;1033;-51
2024/04/07 12:05:02;;;;;;;;;;;;;;;15.78;47.52;101226.25;5026678;28;1618;-51
2024/04/07 12:07:28;;;;;;;;;;;;;;;15.73;46.63;101223.03;5038981;28;908;-51
2024/04/07 12:09:53;;;;;;;;;;;;;;;16.01;47.55;101231.97;5021401;28;1156;-53
2024/04/07 12:12:19;;;;;;;;;;;;;;;16.48;48.11;101236.97;5038904;28;1095;-53
2024/04/07 12:14:44;;;;;;;;;;;;;;;15.95;47.62;101234.94;5038692;28;1076;-52
2024/04/07 12:17:10;;;;;;;;;;;;;;;15.77;47.52;101234.31;5039214;28;1087;-51
2024/04/07 12:19:36;;;;;;;;;;;;;;;16.88;47.94;101241.47;5054315;28;1914;-51
2024/04/07 12:22:07;;;;;;;;;;;;;;;16.32;48.10;101234.47;5038765;28;1087;-52
2024/04/07 12:24:32;;;;;;;;;;;;;;;16.05;47.76;101232.59;5038510;28;1162;-51
2024/04/07 12:26:57;;;;;;;;;;;;;;;17.19;48.17;101240.41;5039169;28;1413;-52
2024/04/07 12:29:23;;;;;;;;;;;;;;;16.56;48.55;101241.81;5038817;28;1130;-54
2024/04/07 12:31:49;;;;;;;;;;;;;;;16.19;47.95;101241.50;5038324;28;895;-53
2024/04/07 12:34:14;;;;;;;;;;;;;;;15.97;47.32;101237.50;5038704;28;1183;-53
2024/04/07 12:36:40;;;;;;;;;;;;;;;15.87;46.78;101239.88;5038236;28;1086;-54
2024/04/07 12:39:08;;;;;;;;;;;;;;;17.14;47.83;101240.72;5038853;28;1914;-55
2024/04/07 12:41:34;;;;;;;;;;;;;;;16.27;48.08;101242.72;5021312;28;1056;-56
2024/04/07 12:43:59;;;;;;;;;;;;;;;16.01;47.66;101245.25;5038407;28;1144;-52